Tiempo atmosférico en la estación meteorológica de Villardeciervos, Zamora (850 m.)



Fecha
DESCASC
Temp. máxima en grados centígrados (hora)
DESCASC
Temp. mínima en grados centígrados (hora)
DESCASC
Temp. media en grados centígrados
DESCASC
Racha de viento máxima en m/sg (hora)
DESCASC
Velocidad máxima media en intervalos de 10 minutos(hora)
DESCASC
Precipitaciones diarias en mm
DESCASC
Precipitaciones de 00:00 a 06:00 en mm
DESCASC
Precipitaciones de 06:00 a 12:00 en mm
DESCASC
Precipitaciones de 12:00 a 18:00 en mm
DESCASC
Precipitaciones de 18:00 a 24:00 en mm
DESCASC
10-11-2019 8.4 (13:30) 3.2 (00:00) 5.8 15.83 (14:40) 7.5 (14:50) 0 0 0 0 0
09-11-2019 10.3 (16:00) 3.8 (00:00) 7.1 14.44 (12:10) 8.61 (12:10) 0.2 0 0.2 0 0
08-11-2019 11.2 (13:40) 1.5 (00:20) 6.3 12.78 (14:10) 7.5 (14:10) 0 0 0 0 0
07-11-2019 9.5 (00:50) 1.6 (00:00) 5.6 15.83 (11:20) 8.61 (11:20) 0.2 0 0 0.2 0
06-11-2019 11.2 (13:50) 5.4 (00:00) 8.3 11.39 (15:40) 6.39 (23:59) 0.2 0 0 0 0.2
05-11-2019 -- (--) -- (--) -- -- (--) -- (--) -- -- 0 0 0
04-11-2019 -- (--) -- (--) -- -- (--) -- (--) -- 0.4 5.6 -- --
03-11-2019 15.2 (15:30) 7.5 (00:00) 11.3 17.78 (00:30) 9.72 (04:30) 1.4 1 0 0 0.4
02-11-2019 13.9 (14:10) 9.6 (00:00) 11.8 17.78 (23:20) 8.06 (23:40) 3.8 2.8 0.2 0 0.8
01-11-2019 17.4 (15:40) 13.6 (00:00) 15.5 14.17 (12:00) 7.22 (04:00) 5.4 0.4 2 2.6 0.4
31-10-2019 18.2 (15:20) 12.2 (07:00) 15.2 11.39 (20:00) 6.39 (23:50) 1.4 0 0 1.4 0
30-10-2019 14.1 (17:10) 12.6 (00:00) 13.4 10.28 (14:20) 5 (14:40) 2.2 0 1 1.2 0
29-10-2019 18.2 (14:30) 11.4 (00:00) 14.8 20.83 (10:20) 5.28 (16:40) 0.4 0.2 0 0 0.2
28-10-2019 18.6 (13:40) 5.6 (00:00) 12.1 19.72 (00:30) 5 (13:30) 0.8 0.4 0 0 0.4
27-10-2019 19.2 (14:40) 5.8 (00:00) 12.5 3.89 (15:20) 2.22 (15:20) 0 0 0 0 0
26-10-2019 20.5 (17:40) 0.9 (00:00) 10.7 8.33 (16:00) 3.89 (17:00) 0 0 0 0 0
25-10-2019 18.9 (17:00) 5.6 (00:00) 12.2 6.67 (13:50) 2.78 (13:50) 0 0 0 0 0
24-10-2019 14 (16:20) 4.5 (00:00) 9.3 13.89 (15:40) 8.61 (12:10) 0 0 0 0 0
23-10-2019 8.6 (14:00) 6.4 (00:00) 7.5 8.33 (22:50) 3.89 (18:20) 13.6 1.2 3 7.2 2.2
22-10-2019 14.1 (16:00) 1.6 (04:00) 7.9 11.39 (14:50) 5.28 (14:50) 1.6 0.8 0 0 0.8
21-10-2019 12.1 (17:00) -0.7 (-00:0) 5.7 7.5 (23:59) 3.61 (15:20) 4.6 0 0 0 4.6
20-10-2019 14 (15:50) 4.4 (00:00) 9.2 8.06 (19:00) 3.89 (19:10) 8.6 8.2 0.4 0 0
19-10-2019 11.6 (16:50) 7.8 (00:00) 9.7 12.78 (11:20) 6.39 (11:10) 52.6 0.8 8.6 29 14.2
18-10-2019 13.8 (16:10) 9 (00:00) 11.4 9.72 (02:20) 5.28 (10:40) 0 0 0 0 0
17-10-2019 17.7 (17:00) 11 (00:00) 14.4 12.22 (16:40) 6.67 (16:30) 15.8 8.4 0.6 0 6.8
16-10-2019 12.7 (16:50) 8.6 (00:00) 10.7 11.94 (13:30) 6.94 (13:30) 2.8 0.2 0 0 2.6
15-10-2019 11.9 (12:50) 5.4 (00:00) 8.6 13.06 (12:50) 6.39 (13:00) 1.2 0 0 0.4 0.8
14-10-2019 15.6 (00:10) 5.9 (00:00) 10.8 12.78 (06:40) 6.11 (06:40) 15.6 0 9.4 6.2 0

Gráficas

Temp. máximas Temp. mínimas Temp. medias Precipitaciones Rachas de viento máximas Velocidades máximas media en intervalos de 10 minutos

Datos horarios

Fecha y hora oficial Temperatura (ºC) Velocidad del viento (km/h) Dirección del viento Racha (km/h) Dirección de racha Precipitación (mm) Presión (hPa) Tendencia (hPa) Humedad (%)
2019-11-12 23:00:00 8.5 25 Sudoeste 41 Sudoeste 0.2 910.1 -3.1 91
2019-11-12 22:00:00 8 22 Sudoeste 47 Sudoeste 0.4 911.2 -2.4 91
2019-11-12 21:00:00 7.5 20 Sudoeste 34 Sudoeste 2.4 912.2 -1.5 90
2019-11-12 20:00:00 7.3 13 Sudoeste 28 Sudoeste 1.8 913.2 -1.3 89
2019-11-12 19:00:00 7.3 17 Sudoeste 29 Sudoeste 0.2 913.6 -1.8 88
2019-11-12 18:00:00 7.3 15 Sudoeste 35 Sudoeste 0 913.7 -2.3 88
2019-11-12 17:00:00 7.8 18 Sudoeste 42 Oeste 0 914.5 -2.6 81
2019-11-12 16:00:00 7.8 21 Sudoeste 50 Sudoeste 0 915.4 -2.7 78
2019-11-12 15:00:00 9 24 Sudoeste 49 Sudoeste 0 916 -3.2 72
2019-11-12 14:00:00 8.9 18 Sudoeste 34 Sudoeste 0 917.1 -2.5 70
2019-11-12 13:00:00 8.9 9 Sudoeste 26 Sur 0 918.1 -1.8 66
2019-11-12 12:00:00 8.4 14 Sudoeste 25 Oeste 0 919.2 -0.5 61
2019-11-12 11:00:00 8.1 10 Sudoeste 26 Sudoeste 0 919.6 0.2 62
2019-11-12 10:00:00 6.5 7 Oeste 17 Sudoeste 0 919.9 -0.1 66
2019-11-12 09:00:00 4.2 5 Sudeste 11 Oeste 0 919.7 -0.1 77
2019-11-12 08:00:00 3.1 4 Sur 10 Oeste 0 919.4 -0.6 79
2019-11-12 07:00:00 3.8 5 Norte 15 Sudoeste 0 920 -0.3 73
2019-11-12 06:00:00 4 2 Noroeste 9 Sudoeste 0 919.8 -0.7 73
2019-11-12 05:00:00 3.8 3 Oeste 8 Sudeste 0 920 -1.3 78
2019-11-12 04:00:00 3.9 4 Norte 14 Sur 0 920.3 -1.2 76
2019-11-12 03:00:00 3.9 5 Sur 11 Sudoeste 0 920.5 -1.3 75
2019-11-12 02:00:00 3.3 5 Sur 10 Sudoeste 0 921.3 -0.3 76
2019-11-12 01:00:00 3.3 4 Sur 10 Sur 0 921.5 -0.4 76
2019-11-12 00:00:00 3.1 6 Sudoeste 11 Sur 0 921.8 0.6 76
2019-11-11 23:00:00 3 7 Sudeste 10 Sudeste 0 921.6 0.2 78
2019-11-11 22:00:00 3.3 4 Sudoeste 11 Sur 0 921.9 0.8 78
2019-11-11 21:00:00 4 6 Sudoeste 12 Sudoeste 0 921.2 0.6 75
2019-11-11 20:00:00 5 6 Sur 10 Sur 0 921.4 1.5 71
2019-11-11 19:00:00 8 3 Noroeste 24 Norte 0 921.1 1.5 60
2019-11-11 18:00:00 9.4 5 Sudoeste 24 Norte 0 920.6 1.2 58
2019-11-11 17:00:00 11.8 10 Noroeste 27 Norte 0 919.9 0.8 48
2019-11-11 16:00:00 14.1 13 Noroeste 28 Noroeste 0 919.6 0.5 42
2019-11-11 15:00:00 15 14 Norte 27 Norte 0 919.4 0.2 39
2019-11-11 14:00:00 15.6 6 Nordeste 25 Norte 0 919.1 0.8 43
2019-11-11 13:00:00 15.7 12 Norte 43 Noroeste 0 919.1 0.1 41
2019-11-11 12:00:00 14.3 21 Noroeste 46 Noroeste 0 919.2 0.4 41
2019-11-11 11:00:00 13.8 24 Oeste 45 Oeste 0 918.3 0 52
2019-11-11 10:00:00 11.6 14 Noroeste 30 Noroeste 0 919 1.2 69
2019-11-11 09:00:00 7.6 6 Sur 17 Sur 0 918.8 0.5 86
2019-11-11 08:00:00 6.7 11 Sur 19 Sur 0 918.3 -0.4 86
2019-11-11 07:00:00 6.2 10 Sur 24 Sur 0 917.8 -1.4 87
2019-11-11 06:00:00 6.3 10 Sur 21 Sur 0 918.3 -1 85
2019-11-11 05:00:00 6 5 Sur 16 Sudoeste 0 918.7 -1.2 85
2019-11-11 04:00:00 5.4 6 Sur 20 Oeste 0 919.2 -0.8 85
2019-11-11 03:00:00 5.2 7 Sur 16 Sudeste 0 919.3 -1.6 84
2019-11-11 02:00:00 5.3 2 Este 18 Sur 0 919.9 -1.1 81
2019-11-11 01:00:00 5.2 11 Sur 21 Sudoeste 0 920 -0.8 80
2019-11-11 00:00:00 5.8 6 Sur 19 Sudoeste 0 920.9 0.2 77
2019-11-10 23:00:00 6.1 9 Sudoeste 18 Sudoeste 0 921 0.1 72
2019-11-10 22:00:00 5.4 4 Sudoeste 19 Sudoeste 0 920.8 -0.2 75
2019-11-10 21:00:00 6.7 9 Oeste 18 Oeste 0 920.7 0.2 67
2019-11-10 20:00:00 6.5 11 Sudoeste 18 Sudoeste 0 920.9 0.5 66
2019-11-10 19:00:00 6.4 9 Sudoeste 25 Sudoeste 0 921 1.1 66
2019-11-10 18:00:00 6.5 14 Sudoeste 24 Sudoeste 0 920.5 0.7 67
2019-11-10 17:00:00 7.6 11 Oeste 36 Noroeste 0 920.4 0.4 58
2019-11-10 16:00:00 7.8 18 Noroeste 49 Noroeste 0 919.9 -0.2 56
2019-11-10 15:00:00 7.9 24 Noroeste 57 Noroeste 0 919.8 -1.1 56
2019-11-10 14:00:00 8.2 24 Noroeste 52 Noroeste 0 920 -0.9 56
2019-11-10 13:00:00 8 20 Noroeste 50 Oeste 0 920.1 -0.8 57
2019-11-10 12:00:00 7.4 25 Noroeste 53 Noroeste 0 920.9 0.2 55
2019-11-10 11:00:00 7.9 14 Noroeste 32 Oeste 0 920.9 0.4 57
2019-11-10 10:00:00 7.3 10 Noroeste 33 Noroeste 0 920.9 0.4 61
2019-11-10 09:00:00 5.3 8 Noroeste 29 Noroeste 0 920.7 0.3 65
2019-11-10 08:00:00 3.7 9 Oeste 21 Sudoeste 0 920.5 0.2 71
2019-11-10 07:00:00 4.1 11 Oeste 22 Oeste 0 920.5 -0.4 66
2019-11-10 06:00:00 3.5 11 Sudoeste 26 Sudoeste 0 920.4 -0.5 68
2019-11-10 05:00:00 4.1 14 Sudoeste 29 Sudoeste 0 920.3 -0.9 60
2019-11-10 04:00:00 3.6 3 Sur 23 Sudoeste 0 920.9 -0.2 61
2019-11-10 03:00:00 4.7 14 Sudoeste 33 Sudoeste 0 920.9 0 59
2019-11-10 02:00:00 4.6 9 Sudoeste 23 Oeste 0 921.2 0.6 62
2019-11-10 01:00:00 4.7 8 Sudoeste 15 Oeste 0 921.1 0.7 65
2019-11-10 00:00:00 5.5 5 Noroeste 17 Noroeste 0 920.9 1.3 71
2019-11-09 23:00:00 6.3 8 Oeste 24 Sudoeste 0 920.6 0.4 69
2019-11-09 22:00:00 6.6 10 Noroeste 22 Oeste 0 920.4 0.7 69
2019-11-09 21:00:00 7.2 10 Sudoeste 34 Oeste 0 919.6 -0.1 60
2019-11-09 20:00:00 7.9 15 Noroeste 39 Sudoeste 0 920.2 0.4 53
2019-11-09 19:00:00 7.7 9 Sudoeste 18 Oeste 0 919.7 -0.1 63
2019-11-09 18:00:00 8.9 10 Oeste 26 Oeste 0 919.7 0.4 62
2019-11-09 17:00:00 8.9 15 Sudoeste 35 Sudoeste 0 919.8 0 75
2019-11-09 16:00:00 10.3 15 Oeste 37 Sudoeste 0 919.8 -0.9 73
2019-11-09 15:00:00 9.5 24 Sudoeste 46 Sudoeste 0 919.3 -2.1 74
2019-11-09 14:00:00 9.3 28 Sudoeste 48 Sudoeste 0 919.8 -2 77
2019-11-09 13:00:00 7 30 Sudoeste 52 Sudoeste 0 920.7 -1.4 83
2019-11-09 12:00:00 6.2 30 Sudoeste 49 Sudoeste 0 921.4 -0.6 85
2019-11-09 11:00:00 6.2 29 Sudoeste 44 Sudoeste 0 921.8 -0.3 84
2019-11-09 10:00:00 4.7 20 Sudoeste 39 Sudoeste 0 922.1 -0.4 89
2019-11-09 09:00:00 4.5 15 Sudoeste 33 Sudoeste 0.2 922 -0.5 88
2019-11-09 08:00:00 4.3 17 Sudoeste 39 Sudoeste 0 922.1 -0.5 85
2019-11-09 07:00:00 4.2 12 Sudoeste 33 Sudoeste 0 922.5 -0.2 81
2019-11-09 06:00:00 4.1 16 Sudoeste 32 Oeste 0 922.5 -0.3 78
2019-11-09 05:00:00 4.3 15 Sudoeste 27 Sudoeste 0 922.6 -0.2 75
2019-11-09 04:00:00 3.9 14 Sudoeste 26 Sudoeste 0 922.7 -0.9 77
2019-11-09 03:00:00 4.1 12 Sudoeste 25 Sudoeste 0 922.8 -0.8 78
2019-11-09 02:00:00 4.6 11 Sudoeste 26 Oeste 0 922.8 -0.6 71
2019-11-09 01:00:00 4.2 15 Sudoeste 24 Oeste 0 923.6 0.7 75
2019-11-09 00:00:00 4.2 15 Sudoeste 27 Sudoeste 0 923.6 1 74
2019-11-08 23:00:00 4.2 10 Oeste 24 Oeste 0 923.4 1 67
2019-11-08 22:00:00 4.6 12 Oeste 26 Oeste 0 922.9 0.8 68
2019-11-08 21:00:00 5.2 13 Oeste 30 Sudoeste 0 922.6 1.3 66
2019-11-08 20:00:00 4.9 16 Sudoeste 30 Sudoeste 0 922.4 1.4 68
2019-11-08 19:00:00 5 13 Sudoeste 23 Oeste 0 922.1 1.9 63
2019-11-08 18:00:00 6.9 10 Oeste 26 Oeste 0 921.3 1.7 57
2019-11-08 17:00:00 7.8 12 Noroeste 35 Noroeste 0 921 1.9 51
2019-11-08 16:00:00 8.9 15 Oeste 38 Oeste 0 920.2 1.2 51
2019-11-08 15:00:00 9.8 21 Oeste 46 Noroeste 0 919.6 0.3 46
2019-11-08 14:00:00 10.1 26 Noroeste 45 Noroeste 0 919.1 0.1 47
2019-11-08 13:00:00 10.8 14 Sudoeste 35 Sur 0 919 0.2 48
2019-11-08 12:00:00 8.2 14 Sudoeste 41 Sudoeste 0 919.3 1.4 61
2019-11-08 11:00:00 8.4 15 Noroeste 37 Noroeste 0 919 1.8 52
2019-11-08 10:00:00 7.1 17 Noroeste 44 Norte 0 918.8 2.4 53
2019-11-08 09:00:00 3.7 15 Sudoeste 33 Sudoeste 0 917.9 1.8 72
2019-11-08 08:00:00 2.6 16 Sudoeste 36 Sudoeste 0 917.2 1.9 76
2019-11-08 07:00:00 2 12 Sudoeste 30 Sudoeste 0 916.4 1.7 82
2019-11-08 06:00:00 1.9 18 Sudoeste 34 Sudoeste 0 916.1 1.2 83
2019-11-08 05:00:00 1.9 17 Sudoeste 33 Sudoeste 0 915.3 0.8 82
2019-11-08 04:00:00 1.8 19 Sudoeste 35 Sudoeste 0 914.7 0.1 82
2019-11-08 03:00:00 2.2 15 Sudoeste 34 Sudoeste 0 914.9 0.6 81
2019-11-08 02:00:00 1.9 19 Sudoeste 36 Sudoeste 0 914.5 -0.1 84
2019-11-08 01:00:00 1.8 20 Sudoeste 36 Sudoeste 0 914.6 0.3 83
2019-11-08 00:00:00 1.6 19 Sudoeste 36 Sudoeste 0 914.3 -0.8 82
2019-11-07 23:00:00 2 17 Sudoeste 37 Oeste 0 914.6 -0.4 79
2019-11-07 22:00:00 2.1 18 Sudoeste 39 Oeste 0 914.3 -0.5 78
2019-11-07 21:00:00 2 16 Sudoeste 31 Sudoeste 0 915.1 0.6 81
2019-11-07 20:00:00 2.1 17 Sudoeste 27 Sudoeste 0 915 0.2 82
2019-11-07 19:00:00 2.4 15 Sudoeste 26 Sudoeste 0 914.8 -0.2 82
2019-11-07 18:00:00 3.8 14 Oeste 34 Sudoeste 0 914.5 0.2 70
2019-11-07 17:00:00 4.8 16 Oeste 40 Sudoeste 0 914.8 0.5 75
2019-11-07 16:00:00 4.2 14 Oeste 45 Noroeste 0.2 915 0 81
2019-11-07 15:00:00 7.7 20 Noroeste 49 Noroeste 0 914.3 -0.8 51
2019-11-07 14:00:00 8.1 20 Oeste 50 Noroeste 0 914.3 -1.2 60
2019-11-07 13:00:00 9.1 23 Oeste 54 Oeste 0 915 -0.5 56
2019-11-07 12:00:00 9.1 22 Oeste 57 Noroeste 0 915.1 0 49
2019-11-07 11:00:00 7.7 25 Oeste 50 Oeste 0 915.5 0.9 52
2019-11-07 10:00:00 6.3 11 Oeste 31 Sudoeste 0 915.5 1.3 62
2019-11-07 09:00:00 5.8 9 Sudoeste 30 Oeste 0 915.1 1 67
2019-11-07 08:00:00 5 13 Oeste 29 Oeste 0 914.6 0.8 71
2019-11-07 07:00:00 5.5 15 Sudoeste 42 Oeste 0 914.2 0.5 71
2019-11-07 06:00:00 5.9 18 Oeste 30 Oeste 0 914.1 0.4 69
2019-11-07 05:00:00 6.2 16 Oeste 40 Oeste 0 913.8 0 69
2019-11-07 04:00:00 7.3 19 Oeste 40 Oeste 0 913.7 0 72
2019-11-07 03:00:00 8.6 19 Oeste 40 Oeste 0 913.7 -0.2 69
2019-11-07 02:00:00 8.9 18 Oeste 33 Sudoeste 0 913.8 -0.4 75
2019-11-07 01:00:00 9.4 17 Sudoeste 37 Sudoeste 0 913.7 -1.1 89
2019-11-07 00:00:00 9.2 23 Sudoeste 40 Sudoeste 0.2 913.9 -1.4 91
2019-11-06 23:00:00 9.1 18 Sudoeste 37 Sudoeste 0 914.2 -1.4 90
2019-11-06 22:00:00 9 15 Sudoeste 34 Sudoeste 0 914.8 -1.1 90
2019-11-06 21:00:00 8.9 18 Sudoeste 33 Sudoeste 0 915.3 -0.4 89
2019-11-06 20:00:00 8.8 22 Sudoeste 35 Sudoeste 0 915.6 -0.7 88
2019-11-06 19:00:00 8.8 15 Sudoeste 36 Oeste 0 915.9 -1.2 86
2019-11-06 18:00:00 9.1 19 Sudoeste 41 Sudoeste 0 915.7 -1.7 81
2019-11-06 17:00:00 9.3 18 Sudoeste 37 Sudoeste 0 916.3 -1.5 79
2019-11-06 16:00:00 9.5 15 Sudoeste 41 Sudoeste 0 917.1 -1.6 75
2019-11-06 15:00:00 9.8 18 Sudoeste 40 Sudoeste 0 917.4 -2.1 71
2019-11-06 14:00:00 11.1 20 Sudoeste 38 Sudoeste 0 917.8 -2 65
2019-11-06 13:00:00 10.2 14 Sudoeste 29 Sudoeste 0 918.7 -0.9 67
2019-11-06 12:00:00 8.5 17 Sudoeste 30 Sudoeste 0 919.5 0.1 76
2019-11-06 11:00:00 7.3 15 Sudoeste 31 Sudoeste 0 919.8 0.8 81
2019-11-06 10:00:00 6.8 16 Sudoeste 27 Sudoeste 0 919.6 0.6 81
2019-11-06 09:00:00 6.8 13 Sudoeste 26 Sudoeste 0 919.4 0.3 76
2019-11-06 08:00:00 6.6 14 Sudoeste 24 Oeste 0 919 0.1 75
2019-11-06 07:00:00 6.4 10 Sudoeste 19 Sudoeste 0 919 -0.1 71
2019-11-06 06:00:00 5.7 3 Sur 18 Oeste 0 919.1 -0.3 74
2019-11-06 05:00:00 6.4 11 Sudoeste 23 Sudoeste 0 918.9 -0.4 70
2019-11-06 04:00:00 6.3 12 Sudoeste 21 Sudoeste 0 919.1 -0.2 66
2019-11-06 03:00:00 6.4 8 Sudoeste 28 Sudoeste 0 919.4 0.5 66
2019-11-06 02:00:00 7.8 16 Oeste 27 Oeste 0 919.3 0.7 59
2019-11-06 01:00:00 7 10 Sudoeste 28 Noroeste 0 919.3 1.1 68
2019-11-06 00:00:00 8.4 20 Noroeste 34 Noroeste 0 918.9 1.2 59
2019-11-05 23:00:00 8.1 14 Sudoeste 28 Oeste 0 918.6 1.2 60
2019-11-05 22:00:00 8.1 15 Oeste 27 Oeste 0 918.2 1.5 58
2019-11-05 21:00:00 8 13 Oeste 26 Sudoeste 0 917.7 1.6 60
2019-11-05 20:00:00 8.3 15 Sudoeste 26 Sudoeste 0 917.4 1.5 63
2019-11-05 19:00:00 9.7 21 Noroeste 51 Oeste 0 916.7 1.3 56
2019-11-05 18:00:00 10.3 15 Noroeste 35 Noroeste 0 916.1 1 54
2019-11-05 17:00:00 12.6 14 Noroeste 44 Noroeste 0 915.9 1.5 51
2019-11-05 16:00:00 11.9 12 Oeste 41 Noroeste 0 915.4 1.2 55
2019-11-05 15:00:00 12.4 16 Oeste 50 Noroeste 0 915.1 0.7 52
2019-11-05 14:00:00 12 24 Oeste 42 Oeste 0 914.4 0.6 56
2019-11-05 13:00:00 11.8 21 Sudoeste 43 Oeste 0 914.2 0.9 62
2019-11-05 12:00:00 11.1 18 Oeste 44 Noroeste 0 914.4 2 62
2019-11-05 11:00:00 10.3 19 Oeste 38 Oeste 0 913.8 1.9 65
2019-11-05 10:00:00 8.9 18 Oeste 38 Sudoeste 0 913.3 1.9 74
2019-11-05 09:00:00 6.7 18 Sudoeste 42 Sudoeste 0 912.4 0.8 85
2019-11-05 08:00:00 5.7 24 Sudoeste 39 Sudoeste 0 911.9 1.1 88
2019-11-05 07:00:00 5.2 23 Sudoeste 39 Sudoeste 0 911.4 0.8 87
2019-11-05 06:00:00 5.1 22 Sudoeste 37 Sudoeste 0 911.6 0.9 86
2019-11-05 05:00:00 4.7 20 Sudoeste 35 Sudoeste 0 910.8 0.3 86
2019-11-05 04:00:00 4.5 22 Sudoeste 36 Sudoeste 0 910.6 0 84
2019-11-05 03:00:00 4 17 Sur 43 Sudoeste 0 910.7 -- 85
2019-11-05 02:00:00 4.5 21 Sudoeste 44 Sudoeste 0.2 910.5 -- 84
2019-11-05 01:00:00 5.5 18 Sudoeste -- -- -- 910.6 -- 82
2019-11-05 00:00:00 -- -- -- -- -- -- -- -- --
2019-11-04 23:00:00 -- -- -- -- -- -- -- -- --
2019-11-04 22:00:00 -- -- -- -- -- -- -- -- --
2019-11-04 21:00:00 -- -- -- -- -- -- -- -- --
2019-11-04 20:00:00 -- -- -- -- -- -- -- -- --
2019-11-04 19:00:00 -- -- -- -- -- -- -- -- --
2019-11-04 18:00:00 -- -- -- -- -- -- -- -- --
2019-11-04 17:00:00 -- -- -- -- -- -- -- -- --
2019-11-04 16:00:00 -- -- -- -- -- -- -- -- --
2019-11-04 15:00:00 -- -- -- -- -- -- -- -- --
2019-11-04 14:00:00 -- -- -- -- -- -- -- -- --
2019-11-04 13:00:00 10.7 14 Sudoeste 43 Oeste 0 909.7 -0.7 80
2019-11-04 12:00:00 10.6 20 Oeste 42 Oeste 0.2 910.6 0.7 83
2019-11-04 11:00:00 11 14 Oeste 45 Oeste 0.4 910.5 0.7 87
2019-11-04 10:00:00 10.9 18 Oeste 47 Oeste 3.4 910.4 0 90
2019-11-04 09:00:00 10.7 23 Sudoeste 62 Sudoeste 1.2 909.9 -1.2 89
2019-11-04 08:00:00 10.4 28 Sudoeste 59 Sudoeste 0.2 909.8 -1.4 89
2019-11-04 07:00:00 10.3 20 Sudoeste 51 Sudoeste 0.2 910.4 -1.2 88
2019-11-04 06:00:00 10.6 26 Sudoeste 53 Sudoeste 0 911.1 -0.9 84
2019-11-04 05:00:00 10.4 21 Sudoeste 65 Sudoeste 0.4 911.2 -0.8 86
2019-11-04 04:00:00 10.7 26 Sudoeste 59 Sudoeste 0 911.6 -1.1 83
2019-11-04 03:00:00 10.6 27 Sudoeste 57 Sudoeste 0 912 -1 84
2019-11-04 02:00:00 11 31 Oeste 81 Oeste 0 912 -1.3 82
2019-11-04 01:00:00 11.5 25 Oeste 55 Oeste 0 912.7 -0.8 84
2019-11-04 00:00:00 11.6 22 Sudoeste 46 Sudoeste 0.2 913 -0.4 84
2019-11-03 23:00:00 11.3 17 Sudoeste 48 Sudoeste 0.2 913.3 -0.2 89
2019-11-03 22:00:00 11.1 23 Sudoeste 51 Sudoeste 0 913.5 0 89
2019-11-03 21:00:00 10.8 20 Sudoeste 46 Sudoeste 0 913.4 0.1 88
2019-11-03 20:00:00 11 21 Sudoeste 45 Oeste 0 913.5 0.9 85
2019-11-03 19:00:00 10.6 16 Sudoeste 36 Sudoeste 0 913.5 1.1 86
2019-11-03 18:00:00 10.9 21 Sudoeste 51 Oeste 0 913.3 1.4 81
2019-11-03 17:00:00 12.2 22 Sudoeste 44 Sudoeste 0 912.6 0.4 70
2019-11-03 16:00:00 13.2 23 Sudoeste 57 Oeste 0 912.4 0.1 63
2019-11-03 15:00:00 14.9 18 Oeste 55 Oeste 0 911.9 -0.5 48
2019-11-03 14:00:00 12.9 13 Oeste 37 Sudoeste 0 912.2 0.6 53
2019-11-03 13:00:00 13.2 22 Oeste 47 Oeste 0 912.3 1.4 53
2019-11-03 12:00:00 11.2 23 Oeste 42 Noroeste 0 912.4 3 55
2019-11-03 11:00:00 10.9 15 Sudoeste 41 Sudoeste 0 911.6 3.4 63
2019-11-03 10:00:00 9.6 12 Oeste 46 Oeste 0 910.9 3.9 59
2019-11-03 09:00:00 9.3 22 Oeste 48 Oeste 0 909.4 3.4 68
2019-11-03 08:00:00 7.5 19 Sudoeste 53 Oeste 0 908.2 2.9 77
2019-11-03 07:00:00 7.9 23 Oeste 55 Oeste 0 907 2.7 73
2019-11-03 06:00:00 8.4 26 Oeste 56 Oeste 0 906 2.2 73
2019-11-03 05:00:00 9.9 30 Oeste 63 Oeste 0.2 905.3 0.9 74
2019-11-03 04:00:00 11.1 30 Oeste 58 Oeste 0.2 904.3 -0.8 88
2019-11-03 03:00:00 10.6 26 Oeste 58 Sudoeste 0 903.8 -1.9 89
2019-11-03 02:00:00 10 27 Oeste 54 Sudoeste 0.2 904.4 -2.5 89
2019-11-03 01:00:00 9.5 26 Oeste 64 Oeste 0.4 905.1 -1.9 89
2019-11-03 00:00:00 9.6 26 Oeste 64 Oeste 0 905.7 -2.5 83
2019-11-02 23:00:00 10 20 Oeste 51 Sudoeste 0 906.9 -2.4 77
2019-11-02 22:00:00 10 22 Sudoeste 49 Sudoeste 0.2 907 -2.5 82
2019-11-02 21:00:00 10.1 23 Sudoeste 49 Sudoeste 0 908.2 -1.7 83
2019-11-02 20:00:00 10.2 20 Sudoeste 44 Sudoeste 0.2 909.3 -1.4 84
2019-11-02 19:00:00 10.2 19 Sudoeste 42 Sudoeste 0.4 909.5 -1.6 85
2019-11-02 18:00:00 11.4 16 Sudoeste 40 Sudoeste 0 909.9 -1.4 73
2019-11-02 17:00:00 12.1 17 Sudoeste 44 Sudoeste 0 910.7 -1 69
2019-11-02 16:00:00 12.4 17 Sudoeste 41 Oeste 0 911.1 -1.1 70
2019-11-02 15:00:00 13 20 Oeste 49 Oeste 0 911.3 -1.4 64
2019-11-02 14:00:00 13.6 23 Sudoeste 44 Sudoeste 0 911.7 -1.6 65
2019-11-02 13:00:00 13.2 18 Sudoeste 35 Sudoeste 0 912.2 -1.3 74
2019-11-02 12:00:00 13.4 19 Sudoeste 33 Sudoeste 0 912.7 -0.6 75
2019-11-02 11:00:00 12.5 14 Sudoeste 34 Sudoeste 0 913.3 0.4 79
2019-11-02 10:00:00 12.6 17 Sudoeste 39 Oeste 0 913.5 0.3 79
2019-11-02 09:00:00 12.6 21 Oeste 40 Oeste 0 913.3 -0.3 81
2019-11-02 08:00:00 12.7 17 Sudoeste 40 Sudoeste 0.2 912.9 -1 88
2019-11-02 07:00:00 12.8 18 Sudoeste 41 Sudoeste 0 913.2 -1.3 88
2019-11-02 06:00:00 12.8 19 Sudoeste 50 Sudoeste 0.6 913.6 -1.6 88
2019-11-02 05:00:00 12.6 15 Sudoeste 35 Oeste 0.2 913.9 -1.8 89
2019-11-02 04:00:00 12.7 20 Sudoeste 39 Sudoeste 0 914.5 -1.6 88
2019-11-02 03:00:00 13 18 Sudoeste 47 Sudoeste 0.8 915.2 -2 88
2019-11-02 02:00:00 13.1 17 Sudoeste 37 Sudoeste 0.8 915.7 -1.7 89
2019-11-02 01:00:00 13.2 17 Sudoeste 32 Sudoeste 0.4 916.1 -1.7 88
2019-11-02 00:00:00 13.6 13 Sudoeste 35 Sudoeste 0 917.2 -1 86
2019-11-01 23:00:00 13.7 17 Sudoeste 37 Sudoeste 0.2 917.4 -1 87
2019-11-01 22:00:00 14.1 17 Sudoeste 37 Sudoeste 0 917.8 -0.7 83
2019-11-01 21:00:00 13.7 14 Sudoeste 28 Sudoeste 0.2 918.2 -0.3 85
2019-11-01 20:00:00 14.1 15 Sudoeste 38 Sudoeste 0 918.4 -0.5 84
2019-11-01 19:00:00 14.6 15 Oeste 32 Oeste 0 918.5 -0.4 83
2019-11-01 18:00:00 15.4 13 Sudoeste 40 Oeste 0 918.5 -0.9 79
2019-11-01 17:00:00 15.7 18 Oeste 48 Sudoeste 0 918.9 -1.2 81
2019-11-01 16:00:00 17.1 20 Oeste 49 Sudoeste 0 918.9 -2.2 76
2019-11-01 15:00:00 16.5 19 Oeste 47 Sudoeste 0 919.4 -2.6 82
2019-11-01 14:00:00 16 18 Sudoeste 39 Sur 2.4 920.1 -2.4 86
2019-11-01 13:00:00 16.3 17 Sudoeste 41 Sudoeste 0.2 921.1 -1.9 84
2019-11-01 12:00:00 16.1 18 Sudoeste 51 Sudoeste 0.2 922 -1.1 86
2019-11-01 11:00:00 15.5 26 Sudoeste 44 Sudoeste 1.4 922.5 -0.5 89
2019-11-01 10:00:00 15.4 19 Sudoeste 34 Sudoeste 0.2 923 -0.2 89
2019-11-01 09:00:00 15.1 17 Sudoeste 34 Sudoeste 0.2 923.1 -0.8 89
2019-11-01 08:00:00 14.9 14 Sudoeste 40 Sudoeste 0 923 -0.9 89
2019-11-01 07:00:00 14.9 17 Sudoeste 33 Sudoeste 0 923.2 -0.9 88
2019-11-01 06:00:00 15 16 Sudoeste 40 Sudoeste 0.4 923.9 -0.8 88
2019-11-01 05:00:00 15.1 19 Sudoeste 40 Sudoeste 0 923.9 -1.1 87
2019-11-01 04:00:00 15 26 Sudoeste 43 Sudoeste 0 924.1 -1.3 87
2019-11-01 03:00:00 14.9 22 Sudoeste 39 Sudoeste 0 924.7 -1.2 88
2019-11-01 02:00:00 14.9 19 Sudoeste 35 Sudoeste 0 925 -1 87
2019-11-01 01:00:00 15 18 Sudoeste 35 Sudoeste 0 925.4 -0.5 88
2019-11-01 00:00:00 15.1 21 Sudoeste 39 Sudoeste 0 925.9 0.2 89
2019-10-31 23:00:00 15.1 21 Sudoeste 38 Sudoeste 0 926 0.2 90
2019-10-31 22:00:00 14.9 20 Sudoeste 34 Sudoeste 0 925.9 0 90
2019-10-31 21:00:00 14.8 22 Sudoeste 37 Sudoeste 0 925.7 -0.1 91
2019-10-31 20:00:00 14.8 19 Sudoeste 41 Sudoeste 0 925.8 0 91
2019-10-31 19:00:00 14.7 17 Sudoeste 33 Sur 0 925.9 0.3 90
2019-10-31 18:00:00 14.8 17 Sudoeste 30 Sudoeste 0.6 925.8 0 89
2019-10-31 17:00:00 15.3 17 Sudoeste 33 Sudoeste 0.8 925.8 -0.5 86
2019-10-31 16:00:00 17.1 21 Sudoeste 35 Sudoeste 0 925.6 -1.4 72
2019-10-31 15:00:00 17.7 21 Sudoeste 37 Sudoeste 0 925.8 -1.3 66
2019-10-31 14:00:00 16.8 15 Sudoeste 32 Sudoeste 0 926.3 -1 71
2019-10-31 13:00:00 16.9 14 Sudoeste 33 Sudoeste 0 927 -0.1 70
2019-10-31 12:00:00 17 12 Sur 29 Sudoeste 0 927.1 0.6 70
2019-10-31 11:00:00 15 15 Sur 29 Sudoeste 0 927.3 1.3 74
2019-10-31 10:00:00 14.6 10 Oeste 27 Sudoeste 0 927.1 1.3 75
2019-10-31 09:00:00 13 14 Sudoeste 26 Sudoeste 0 926.5 1 83
2019-10-31 08:00:00 12.3 15 Sudoeste 28 Sudoeste 0 926 0.6 86
2019-10-31 07:00:00 12.2 4 Sudoeste 27 Oeste 0 925.8 0.4 87
2019-10-31 06:00:00 12.4 12 Sudoeste 30 Sudoeste 0 925.5 0 87
2019-10-31 05:00:00 12.5 10 Sudoeste 26 Sudoeste 0 925.4 0 87
2019-10-31 04:00:00 12.9 11 Sudoeste 26 Sudoeste 0 925.4 -0.1 86
2019-10-31 03:00:00 13 13 Sudoeste 34 Sudoeste 0 925.5 -0.1 85
2019-10-31 02:00:00 13 16 Sudoeste 33 Sudoeste 0 925.4 -0.1 85
2019-10-31 01:00:00 13 17 Sudoeste 31 Sudoeste 0 925.5 0.1 86
2019-10-31 00:00:00 13.3 17 Sudoeste 31 Sudoeste 0 925.6 0.6 86
2019-10-30 23:00:00 13.2 13 Sudoeste 26 Sudoeste 0 925.5 0.4 89
2019-10-30 22:00:00 13.3 12 Sudoeste 24 Sudoeste 0 925.4 0.9 89
2019-10-30 21:00:00 13.7 15 Sudoeste 27 Sudoeste 0 925 1 90
2019-10-30 20:00:00 13.8 13 Sudoeste 27 Sudoeste 0 925.1 1 90
2019-10-30 19:00:00 13.6 9 Sudoeste 31 Sur 0 924.5 0.6 90
2019-10-30 18:00:00 13.9 13 Sudoeste 27 Sudoeste 0 924 0.2 88
2019-10-30 17:00:00 14 12 Sudoeste 26 Sudoeste 0 924.1 -0.2 88
2019-10-30 16:00:00 13.8 14 Sudoeste 28 Sudoeste 0 923.9 -0.6 89
2019-10-30 15:00:00 13.8 14 Sudoeste 37 Sudoeste 0 923.8 -1 89
2019-10-30 14:00:00 14 14 Sudoeste 28 Sudoeste 0.8 924.3 -0.1 88
2019-10-30 13:00:00 13.9 15 Sudoeste 26 Sudoeste 0.4 924.5 -0.3 86
2019-10-30 12:00:00 13.8 12 Sudoeste 28 Sur 0 924.8 0.1 86
2019-10-30 11:00:00 13.7 12 Sur 26 Sur 0.2 924.4 0.1 89
2019-10-30 10:00:00 13.2 11 Sudoeste 26 Sudoeste 0.8 924.8 0.8 90
2019-10-30 09:00:00 12.9 9 Sudoeste 17 Sudoeste 0 924.7 0.8 91
2019-10-30 08:00:00 12.7 8 Sudoeste 21 Sudoeste 0 924.3 0.5 91
2019-10-30 07:00:00 12.7 10 Sudoeste 19 Sudoeste 0 924 0.1 91
2019-10-30 06:00:00 13 6 Sudoeste 14 Oeste 0 923.9 -0.1 90
2019-10-30 05:00:00 12.9 7 Sudoeste 14 Sudoeste 0 923.8 0 90
2019-10-30 04:00:00 13 5 Sudoeste 17 Sudoeste 0 923.9 -0.1 89
2019-10-30 03:00:00 12.9 10 Sudoeste 23 Sudoeste 0 924 0.1 90
2019-10-30 02:00:00 12.8 12 Sudoeste 18 Sudoeste 0 923.8 -0.4 90
2019-10-30 01:00:00 12.8 10 Sudoeste 16 Sur 0 924 0.1 90
2019-10-30 00:00:00 12.8 9 Sudoeste 15 Sudoeste 0 923.9 0.3 89
2019-10-29 23:00:00 12.9 4 Sudoeste 13 Oeste 0.2 924.2 0.8 89
2019-10-29 22:00:00 13 5 Oeste 11 Oeste 0 923.9 1 89
2019-10-29 21:00:00 13 2 Oeste 6 Oeste 0 923.6 1 88
2019-10-29 20:00:00 13.1 3 Oeste 10 Oeste 0 923.4 1.1 86
2019-10-29 19:00:00 13.4 9 Oeste 22 Sudoeste 0 922.9 1.2 83
2019-10-29 18:00:00 14.2 9 Sudoeste 26 Sudoeste 0 922.6 1.2 80
2019-10-29 17:00:00 15.7 14 Sudoeste 29 Sudoeste 0 922.3 0.9 69
2019-10-29 16:00:00 16.7 10 Sudoeste 25 Sur 0 921.7 -0.5 62
2019-10-29 15:00:00 17.6 12 Sudoeste 24 Sudoeste 0 921.4 -0.7 57
2019-10-29 14:00:00 17.7 12 Sudoeste 32 Sur 0 921.4 -0.8 58
2019-10-29 13:00:00 16 12 Sudoeste 24 Sudoeste 0 922.2 0.3 65
2019-10-29 12:00:00 16.3 10 Sudoeste 24 Sudoeste 0 922.1 0.8 63
2019-10-29 11:00:00 15.3 15 Sudoeste 75 Noroeste 0 922.2 1.7 71
2019-10-29 10:00:00 14.2 10 Sudoeste 22 Sudoeste 0 921.9 1.6 79
2019-10-29 09:00:00 12.3 12 Sudoeste 24 Sudoeste 0 921.3 1.2 88
2019-10-29 08:00:00 11.4 11 Sudoeste 18 Sudoeste 0 920.5 0.6 89
2019-10-29 07:00:00 11.5 7 Sudoeste 18 Sudoeste 0 920.3 0.5 88
2019-10-29 06:00:00 12.2 9 Sudoeste 15 Sudoeste 0 920.1 0.1 88
2019-10-29 05:00:00 12.9 7 Sudoeste 18 Sudoeste 0 919.9 -0.2 88
2019-10-29 04:00:00 13 9 Sudoeste 21 Sudoeste 0.2 919.8 -0.6 89
2019-10-29 03:00:00 13.1 10 Sudoeste 23 Sudoeste 0 920 -0.4 91
2019-10-29 02:00:00 13.1 8 Sudoeste 21 Sudoeste 0 920.1 -0.4 91
2019-10-29 01:00:00 13.4 10 Sudoeste 24 Sudoeste 0 920.4 0.1 90
2019-10-29 00:00:00 13.4 10 Sur 19 Sudoeste 0.4 920.4 0.1 89
2019-10-28 23:00:00 13.8 6 Sudoeste 17 Sudoeste 0 920.5 0.3 85
2019-10-28 22:00:00 13.8 9 Sur 20 Sur 0 920.3 -0.1 83
2019-10-28 21:00:00 13.8 6 Oeste 14 Sudoeste 0 920.3 0.2 82
2019-10-28 20:00:00 14.1 8 Sudoeste 21 Sudoeste 0 920.2 0.3 81
2019-10-28 19:00:00 14.8 12 Sudoeste 21 Sudoeste 0 920.4 0.3 78
2019-10-28 18:00:00 15.5 7 Sudoeste 21 Sudoeste 0 920.1 0.2 74
2019-10-28 17:00:00 16.2 12 Sudoeste 27 Sudoeste 0 919.9 -0.4 70
2019-10-28 16:00:00 17.3 13 Sudoeste 27 Sudoeste 0 920.1 -0.7 65
2019-10-28 15:00:00 17.8 11 Sudoeste 27 Sudoeste 0 919.9 -1.5 60
2019-10-28 14:00:00 17.8 15 Sudoeste 35 Sudoeste 0 920.3 -1.3 56
2019-10-28 13:00:00 17.7 14 Sudoeste 29 Sudoeste 0 920.8 -1.1 61
2019-10-28 12:00:00 16.4 12 Sur 22 Sudoeste 0 921.4 0 71
2019-10-28 11:00:00 15.6 3 Este 8 Noroeste 0 921.6 0.6 67
2019-10-28 10:00:00 11.8 4 Noroeste 8 Noroeste 0 921.9 1 81
2019-10-28 09:00:00 7.6 3 Este 7 Sudeste 0 921.4 0.4 93
2019-10-28 08:00:00 5.9 4 Noroeste 11 Nordeste 0 921 0 92
2019-10-28 07:00:00 6 0 Calma 5 Norte 0 920.9 -0.4 92
2019-10-28 06:00:00 6.3 5 Sur 6 Sudeste 0 921 -0.6 91
2019-10-28 05:00:00 7.3 2 Sur 6 Noroeste 0 921 -0.8 90
2019-10-28 04:00:00 8.7 3 Sur 6 Sudeste 0 921.3 -0.7 90
2019-10-28 03:00:00 10.1 2 Este 6 Sudeste 0 921.6 -0.9 90
2019-10-28 02:00:00 10.3 3 Noroeste 9 Sudoeste 0.4 921.8 -0.9 90
2019-10-28 01:00:00 10.1 3 Sur 71 Oeste 0 922 -0.7 88
2019-10-28 00:00:00 10.2 0 Calma 7 Sudeste 0 922.5 0 88
2019-10-27 23:00:00 10.3 3 Sur 8 Sudeste 0 922.7 0.3 87
2019-10-27 22:00:00 10.8 0 Calma 4 Sur 0 922.7 0.4 84
2019-10-27 21:00:00 11.9 3 Sudoeste 8 Sudoeste 0 922.5 0.3 82
2019-10-27 20:00:00 12.6 3 Sudoeste 8 Sur 0 922.4 0.2 80
2019-10-27 19:00:00 14.2 5 Sudoeste 11 Sudoeste 0 922.3 0.2 72
2019-10-27 18:00:00 15.9 2 Oeste 7 Sur 0 922.2 -0.4 69
2019-10-27 17:00:00 17.8 2 Oeste 8 Oeste 0 922.2 -0.5 62
2019-10-27 16:00:00 19.2 2 Oeste 14 Sudoeste 0 922.1 -1.5 42
2019-10-27 15:00:00 18.9 2 Sudoeste 10 Sudeste 0 922.6 -1.8 52
2019-10-27 14:00:00 18.4 4 Nordeste 8 Este 0 922.7 -1.7 53
2019-10-27 13:00:00 16.1 2 Sudeste 8 Noroeste 0 923.6 -1.1 66
2019-10-27 12:00:00 12.9 3 Noroeste 6 Noroeste 0 924.4 0.4 81
2019-10-27 11:00:00 10.3 0 Calma 6 Sudeste 0 924.4 0.9 88
2019-10-27 10:00:00 8.7 2 Este 6 Noroeste 0 924.7 1.5 91
2019-10-27 09:00:00 7.3 2 Este 10 Noroeste 0 924 0.8 91
2019-10-27 08:00:00 6.5 4 Norte 9 Sudeste 0 923.5 0.5 92
2019-10-27 07:00:00 5.9 2 Oeste 9 Sudeste 0 923.2 0 90
2019-10-27 06:00:00 6.8 0 Calma 7 Sudoeste 0 923.2 -0.1 91
2019-10-27 05:00:00 6.7 3 Sur 6 Sudoeste 0 923 -0.8 90
2019-10-27 04:00:00 6.9 5 Este 8 Sudeste 0 923.2 -0.8 89
2019-10-27 03:00:00 7 4 Este 8 Sudeste 0 923.3 -0.9 90
2019-10-27 02:00:00 7.1 2 Sudeste 7 Sudeste 0 923.8 -0.4 90
2019-10-27 01:00:00 6.7 3 Sudeste 6 Norte 0 924.2 0.4 89
2019-10-27 00:00:00 7.4 4 Sur 7 Sudeste 0 924.2 0.7 87
2019-10-26 23:00:00 8.6 5 Sur 8 Sur 0 924 1 87
2019-10-26 22:00:00 9.9 3 Sudoeste 8 Sudoeste 0 923.8 1.3 83
2019-10-26 21:00:00 11.1 6 Sur 9 Sur 0 923.5 1.3 79
2019-10-26 20:00:00 13.1 4 Sur 8 Oeste 0 923 0.6 73
2019-10-26 19:00:00 17.2 6 Oeste 13 Oeste 0 922.5 -0.1 54
2019-10-26 18:00:00 20.3 6 Sudoeste 20 Oeste 0 922.2 -0.6 41
2019-10-26 17:00:00 20 14 Sudoeste 28 Oeste 0 922.4 -1 40
2019-10-26 16:00:00 20.1 12 Sudoeste 30 Sudoeste 0 922.6 -1.6 40
2019-10-26 15:00:00 19.9 11 Sudoeste 26 Sudoeste 0 922.8 -1.5 42
2019-10-26 14:00:00 18.2 9 Sudoeste 19 Sudoeste 0 923.4 -1 50
2019-10-26 13:00:00 14.8 3 Noroeste 10 Noroeste 0 924.2 0.2 71
2019-10-26 12:00:00 11.7 0 Calma 6 Noroeste 0 924.3 0.8 79
2019-10-26 11:00:00 7 2 Nordeste 8 Norte 0 924.4 0.9 93
2019-10-26 10:00:00 4 5 Sudeste 9 Noroeste 0 924 0.9 94
2019-10-26 09:00:00 2.2 5 Sudeste 8 Sudeste 0 923.5 0.3 94
2019-10-26 08:00:00 0.9 4 Sur 6 Sudeste 0 923.5 0.2 92
2019-10-26 07:00:00 1.7 5 Sur 6 Sur 0 923.1 -0.6 93
2019-10-26 06:00:00 2 2 Sudoeste 5 Noroeste 0 923.2 -1 93
2019-10-26 05:00:00 1.8 2 Norte 7 Sudeste 0 923.3 -1.2 92
2019-10-26 04:00:00 3.1 0 Calma 5 Norte 0 923.7 -1.2 91
2019-10-26 03:00:00 3.7 0 Calma 4 Sur 0 924.2 -0.7 91
2019-10-26 02:00:00 4 2 Sur 4 Sudeste 0 924.5 -0.4 90
2019-10-26 01:00:00 5 0 Calma 6 Sudeste 0 924.9 0.2 91
2019-10-26 00:00:00 5.6 4 Sudeste 7 Sudeste 0 924.9 0.5 89
2019-10-25 23:00:00 6.7 0 Calma 6 Sur 0 924.9 0.6 87
2019-10-25 22:00:00 8.3 4 Sur 7 Sur 0 924.7 0.8 86
2019-10-25 21:00:00 10 4 Sur 10 Sudoeste 0 924.4 0.2 81
2019-10-25 20:00:00 12.2 4 Sur 9 Sur 0 924.3 -0.1 75
2019-10-25 19:00:00 16.8 4 Sudoeste 8 Sur 0 923.9 -0.7 60
2019-10-25 18:00:00 18.4 4 Sur 17 Sudeste 0 924.2 -0.8 52
2019-10-25 17:00:00 18.7 6 Sur 17 Sudeste 0 924.4 -1.2 50
2019-10-25 16:00:00 18.1 6 Sur 15 Sur 0 924.6 -1.8 50
2019-10-25 15:00:00 17.4 6 Sur 17 Sur 0 925 -1.7 52
2019-10-25 14:00:00 16.2 5 Sur 24 Sudeste 0 925.6 -1.2 58
2019-10-25 13:00:00 15.1 5 Este 12 Sudeste 0 926.4 0 68
2019-10-25 12:00:00 11.8 3 Norte 6 Nordeste 0 926.7 0.6 84
2019-10-25 11:00:00 9.5 2 Norte 5 Noroeste 0 926.8 0.9 93
2019-10-25 10:00:00 8 0 Calma 6 Sudoeste 0 926.4 0.7 93
2019-10-25 09:00:00 6.9 3 Sur 4 Sur 0 926.1 0.4 93
2019-10-25 08:00:00 6.3 2 Sur 4 Sudeste 0 925.9 0.5 93
2019-10-25 07:00:00 5.9 4 Sur 9 Oeste 0 925.7 0.2 92
2019-10-25 06:00:00 6.2 2 Oeste 6 Sudeste 0 925.7 0 89
2019-10-25 05:00:00 7.6 3 Oeste 7 Sudoeste 0 925.4 -0.6 89
2019-10-25 04:00:00 9.1 2 Norte 12 Oeste 0 925.5 -0.3 86
2019-10-25 03:00:00 10.4 8 Oeste 15 Oeste 0 925.7 -0.2 83
2019-10-25 02:00:00 10.9 8 Oeste 15 Oeste 0 926 0.5 83
2019-10-25 01:00:00 10.8 7 Sudoeste 16 Oeste 0 925.8 0.8 84
2019-10-25 00:00:00 10.7 5 Oeste 14 Oeste 0 925.9 1.2 86
2019-10-24 23:00:00 10.1 7 Sur 15 Sudoeste 0 925.5 1.4 87
2019-10-24 22:00:00 10.2 7 Sudoeste 22 Oeste 0 925 1.5 88
2019-10-24 21:00:00 10.5 10 Sudoeste 28 Sudoeste 0 924.7 1.8 87
2019-10-24 20:00:00 10.7 17 Sudoeste 28 Sudoeste 0 924.1 1.7 86
2019-10-24 19:00:00 11.2 10 Sudoeste 37 Sudoeste 0 923.5 1.4 82
2019-10-24 18:00:00 11.6 19 Sudoeste 39 Sudoeste 0 922.9 0.9 80
2019-10-24 17:00:00 13.4 22 Sudoeste 41 Sudoeste 0 922.4 0.7 72
2019-10-24 16:00:00 13.8 24 Oeste 50 Sudoeste 0 922.1 0.6 71
2019-10-24 15:00:00 12.3 23 Sudoeste 43 Sudoeste 0 922 1.1 75
2019-10-24 14:00:00 12.1 26 Sudoeste 48 Sur 0 921.7 1.3 76
2019-10-24 13:00:00 10.1 25 Sudoeste 49 Sudoeste 0 921.5 1.9 80
2019-10-24 12:00:00 10.4 23 Sudoeste 40 Sudoeste 0 920.9 2 80
2019-10-24 11:00:00 9.4 16 Sudoeste 37 Sur 0 920.4 2.1 81
2019-10-24 10:00:00 7.3 15 Sudoeste 27 Sudoeste 0 919.6 1.7 84
2019-10-24 09:00:00 6.2 12 Sudoeste 29 Sudoeste 0 918.9 1.4 87
2019-10-24 08:00:00 5.5 7 Sudeste 21 Sur 0 918.3 1.3 90
2019-10-24 07:00:00 5 8 Sur 18 Sur 0 917.9 1.2 90
2019-10-24 06:00:00 5.2 9 Sur 18 Sur 0 917.5 1.2 86
2019-10-24 05:00:00 5.5 6 Sur 19 Sudoeste 0 917 0.6 87
2019-10-24 04:00:00 5.7 6 Sur 18 Sudoeste 0 916.7 0.8 87
2019-10-24 03:00:00 4.7 6 Sudeste 18 Sudoeste 0 916.3 0.5 87
2019-10-24 02:00:00 6 9 Sudoeste 20 Oeste 0 916.4 1.3 84
2019-10-24 01:00:00 6.6 10 Oeste 20 Sudoeste 0 915.9 1.2 82
2019-10-24 00:00:00 6.5 6 Sur 13 Norte 0 915.8 1.8 86
2019-10-23 23:00:00 6.6 11 Sudoeste 30 Sudeste 1.6 915.1 1.7 89
2019-10-23 22:00:00 7 5 Oeste 19 Oeste 0.4 914.7 2 85
2019-10-23 21:00:00 7.4 10 Oeste 20 Oeste 0 914 1.6 85
2019-10-23 20:00:00 7.5 4 Sur 24 Sudoeste 0.2 913.4 1 85
2019-10-23 19:00:00 7.8 6 Sudoeste 27 Oeste 0 912.7 1 83
2019-10-23 18:00:00 7.7 13 Oeste 25 Noroeste 0.2 912.4 0.3 83
2019-10-23 17:00:00 8 14 Oeste 26 Oeste 0.8 912.4 0.4 87
2019-10-23 16:00:00 7.9 14 Oeste 24 Oeste 2.4 911.7 -0.1 87
2019-10-23 15:00:00 8.4 9 Oeste 16 Noroeste 2.4 912.1 0.1 89
2019-10-23 14:00:00 8.6 3 Oeste 11 Noroeste 0.8 912 0.3 88
2019-10-23 13:00:00 8.1 3 Sur 8 Sudeste 0.6 911.8 1 89
2019-10-23 12:00:00 8 2 Sudeste 6 Oeste 1.2 912 1.9 88
2019-10-23 11:00:00 7.7 3 Sudeste 14 Sudoeste 1.4 911.7 2.3 88
2019-10-23 10:00:00 7.4 7 Sur 18 Sur 0.4 910.8 1 87
2019-10-23 09:00:00 7.1 6 Sur 12 Sudoeste 0 910.1 -0.2 86
2019-10-23 08:00:00 6.8 6 Sur 13 Sur 0 909.4 -1.8 88
2019-10-23 07:00:00 6.6 7 Sur 12 Sur 0 909.8 -2.1 88
2019-10-23 06:00:00 6.8 4 Sudeste 10 Sudeste 0.2 910.3 -2.3 88
2019-10-23 05:00:00 6.8 3 Sur 6 Sudeste 0 911.2 -2.3 88
2019-10-23 04:00:00 6.9 4 Sur 8 Sudeste 0.2 911.9 -2.4 88
2019-10-23 03:00:00 6.9 4 Sur 8 Sur 0 912.6 -2.4 89
2019-10-23 02:00:00 7.1 4 Sur 14 Noroeste 0.4 913.5 -2.2 87
2019-10-23 01:00:00 7.5 7 Noroeste 18 Oeste 0.4 914.3 -0.9 86
2019-10-23 00:00:00 7.8 6 Noroeste 19 Noroeste 0.8 915 -0.6 83
2019-10-22 23:00:00 7.8 4 Sudeste 9 Sur 0 915.7 -0.9 84
2019-10-22 22:00:00 7.9 4 Sudoeste 7 Sudeste 0 915.2 -1 83
2019-10-22 21:00:00 8.6 4 Sudoeste 9 Sur 0 915.6 -0.2 78
2019-10-22 20:00:00 9.3 3 Este 26 Este 0 916.6 0.1 77
2019-10-22 19:00:00 11 10 Nordeste 26 Nordeste 0 916.2 -0.7 61
2019-10-22 18:00:00 13.6 9 Este 27 Nordeste 0 915.8 -1.8 48
2019-10-22 17:00:00 13.3 12 Este 30 Sudeste 0 916.5 -1.9 50
2019-10-22 16:00:00 14.1 10 Este 34 Este 0 916.9 -2.6 47
2019-10-22 15:00:00 13.3 18 Este 41 Este 0 917.6 -2.4 44
2019-10-22 14:00:00 13.3 11 Nordeste 31 Este 0 918.4 -2 46
2019-10-22 13:00:00 11.7 13 Nordeste 29 Este 0 919.5 -1 57
2019-10-22 12:00:00 10.3 13 Este 22 Este 0 920 -0.3 68
2019-10-22 11:00:00 7.4 2 Nordeste 7 Este 0 920.4 0.2 85
2019-10-22 10:00:00 4.7 2 Sur 5 Sudoeste 0 920.5 0.1 93
2019-10-22 09:00:00 2.7 0 Calma 8 Nordeste 0 920.3 -0.4 93
2019-10-22 08:00:00 2.7 2 Sur 6 Norte 0 920.2 0.1 93
2019-10-22 07:00:00 3.3 3 Noroeste 6 Este 0 920.4 0 93
2019-10-22 06:00:00 2.8 0 Calma 8 Este 0 920.7 -0.1 93
2019-10-22 05:00:00 2.2 3 Este 9 Este 0 920.1 -0.9 93
2019-10-22 04:00:00 1.6 3 Sur 6 Sudeste 0 920.4 -0.8 92
2019-10-22 03:00:00 2.7 4 Sur 6 Sur 0 920.8 -0.7 91
2019-10-22 02:00:00 3.9 2 Sur 6 Sudoeste 0 921 -0.3 89
2019-10-22 01:00:00 5.7 3 Noroeste 15 Sudeste 0.8 921.2 0.4 89
2019-10-22 00:00:00 5.9 12 Sudeste 27 Sudeste 4.6 921.5 1 86
2019-10-21 23:00:00 5.3 8 Sur 15 Sur 0 921.3 1.2 89
2019-10-21 22:00:00 5 4 Sur 7 Sudeste 0 920.8 1.2 87
2019-10-21 21:00:00 5.7 3 Oeste 6 Sudeste 0 920.5 1.3 82
2019-10-21 20:00:00 7.8 0 Calma 12 Noroeste 0 920.1 0.8 76
2019-10-21 19:00:00 9 5 Noroeste 10 Este 0 919.6 0 73
2019-10-21 18:00:00 10.5 7 Este 19 Sudeste 0 919.2 -0.8 58
2019-10-21 17:00:00 12.1 10 Sudeste 21 Este 0 919.3 -1.1 55
2019-10-21 16:00:00 10.3 8 Sudeste 24 Este 0 919.6 -1.1 54
2019-10-21 15:00:00 10.9 10 Este 18 Este 0 920 -0.6 58
2019-10-21 14:00:00 10.6 4 Nordeste 12 Nordeste 0 920.4 -0.5 62
2019-10-21 13:00:00 10 5 Noroeste 10 Oeste 0 920.7 0.1 70
2019-10-21 12:00:00 7.1 0 Calma 4 Noroeste 0 920.6 0.5 82
2019-10-21 11:00:00 4.9 0 Calma 4 Sudeste 0 920.9 1.2 93
2019-10-21 10:00:00 2.7 0 Calma 7 Sudeste 0 920.6 1 94
2019-10-21 09:00:00 0.8 0 Calma 5 Sur 0 920.1 1 94
2019-10-21 08:00:00 -0.5 3 Este 8 Sudeste 0 919.7 0.5 94
2019-10-21 07:00:00 -0.1 0 Calma 5 Sur 0 919.6 0.4 93
2019-10-21 06:00:00 -0.2 3 Sur 5 Sudeste 0 919.1 0 93
2019-10-21 05:00:00 0.5 3 Sudeste 5 Sudoeste 0 919.2 0.3 93
2019-10-21 04:00:00 1.4 2 Oeste 8 Sur 0 919.2 0.7 93
2019-10-21 03:00:00 1.8 4 Sur 8 Sur 0 919.1 0.7 92
2019-10-21 02:00:00 2.6 3 Nordeste 15 Sur 0 918.9 0.8 90
2019-10-21 01:00:00 3.4 6 Sur 11 Sur 0 918.5 0.8 91
2019-10-21 00:00:00 4.5 2 Sur 8 Sudoeste 0 918.4 1.1 86
2019-10-20 23:00:00 5.2 2 Sudoeste 7 Sur 0 918.1 1.6 87
2019-10-20 22:00:00 6.2 3 Sur 9 Sur 0 917.7 2.2 84
2019-10-20 21:00:00 7.1 4 Sur 9 Sudoeste 0 917.3 2.3 82
2019-10-20 20:00:00 9.2 5 Sudoeste 29 Noroeste 0 916.5 1.9 72
2019-10-20 19:00:00 11.8 10 Norte 29 Noroeste 0 915.5 1.3 57
2019-10-20 18:00:00 13.2 12 Noroeste 26 Noroeste 0 915 0.7 52
2019-10-20 17:00:00 11.9 12 Oeste 21 Oeste 0 914.6 0.4 54
2019-10-20 16:00:00 12.9 12 Oeste 25 Oeste 0 914.2 0.2 49
2019-10-20 15:00:00 11.9 10 Oeste 19 Oeste 0 914.3 0.6 61
2019-10-20 14:00:00 10.7 10 Oeste 19 Oeste 0 914.2 1.1 68
2019-10-20 13:00:00 9.5 9 Oeste 17 Oeste 0 914 1.5 76
2019-10-20 12:00:00 8.5 7 Oeste 18 Oeste 0 913.7 2.4 79
2019-10-20 11:00:00 7.7 12 Sudoeste 21 Sudoeste 0.2 913.1 2.6 81
2019-10-20 10:00:00 6.5 5 Sur 11 Sudoeste 0.2 912.5 2.6 89
2019-10-20 09:00:00 5.8 3 Sur 8 Sudoeste 0 911.3 2.2 91
2019-10-20 08:00:00 5.7 3 Sur 8 Sur 0 910.5 2.2 91
2019-10-20 07:00:00 6.1 4 Sudeste 7 Sur 0 909.9 1.8 91
2019-10-20 06:00:00 6.5 2 Sudeste 10 Sudoeste 0 909.1 1.2 91
2019-10-20 05:00:00 6.7 6 Sudoeste 11 Sudoeste 0 908.3 0.7 91
2019-10-20 04:00:00 7.3 3 Oeste 11 Sur 0.8 908.1 0.9 91
2019-10-20 03:00:00 7.5 4 Sur 9 Sur 2.4 907.9 1 92
2019-10-20 02:00:00 7.9 4 Sur 13 Este 1.6 907.6 1 92
2019-10-20 01:00:00 7.8 8 Sur 13 Sudeste 3.4 907.2 0.9 92
2019-10-20 00:00:00 7.8 7 Sudoeste 10 Sudoeste 0.6 906.9 0.9 92
2019-10-19 23:00:00 7.9 4 Este 16 Norte 0.6 906.6 1 92
2019-10-19 22:00:00 8.2 2 Norte 9 Nordeste 0.4 906.3 -0.3 92
2019-10-19 21:00:00 8.1 6 Este 14 Este 0.4 906 -0.7 92
2019-10-19 20:00:00 8.1 7 Este 28 Sudeste 9 905.6 -1 92
2019-10-19 19:00:00 8.5 4 Nordeste 23 Este 3.2 906.6 0 91
2019-10-19 18:00:00 9.4 4 Sudeste 20 Noroeste 12.8 906.7 -0.8 91
2019-10-19 17:00:00 9.9 10 Noroeste 30 Noroeste 4.2 906.6 -2.2 87
2019-10-19 16:00:00 11.2 8 Sur 20 Sudoeste 3 906.6 -2.9 89
2019-10-19 15:00:00 11.3 6 Sur 30 Sudoeste 2.2 907.5 -2.7 88
2019-10-19 14:00:00 10.6 13 Sudoeste 41 Sudoeste 4.6 908.8 -2 87
2019-10-19 13:00:00 10.6 14 Sur 42 Sudoeste 2.2 909.5 -1.5 89
2019-10-19 12:00:00 10.3 19 Sur 46 Sudoeste 4.2 910.2 -1.1 87
2019-10-19 11:00:00 9.7 17 Sur 39 Sudoeste 1.4 910.8 -0.7 90
2019-10-19 10:00:00 9.4 12 Sur 34 Sur 1.8 911 -1 91
2019-10-19 09:00:00 9.6 11 Sur 34 Sur 0.8 911.3 -1.1 91
2019-10-19 08:00:00 9.6 16 Sudoeste 35 Sur 0.2 911.5 -1.5 90
2019-10-19 07:00:00 9.5 19 Sur 37 Sur 0.2 912 -1.9 91
2019-10-19 06:00:00 9.5 14 Sur 41 Sudoeste 0.6 912.4 -2.1 90
2019-10-19 05:00:00 9.6 17 Sur 34 Sudoeste 0.2 913 -1.8 89
2019-10-19 04:00:00 9.9 13 Sudoeste 34 Sudoeste 0 913.9 -1.1 83
2019-10-19 03:00:00 10.4 16 Sudoeste 35 Sudoeste 0 914.5 -1.4 82
2019-10-19 02:00:00 10.5 15 Sudoeste 33 Sudoeste 0 914.8 -1.4 83
2019-10-19 01:00:00 10.6 15 Sudoeste 30 Sudoeste 0 915 -1.6 83
2019-10-19 00:00:00 10.8 16 Sudoeste 29 Sudoeste 0 915.9 -1 82
2019-10-18 23:00:00 10.6 9 Sudoeste 22 Sudoeste 0 916.2 -1 81
2019-10-18 22:00:00 10.7 8 Sudoeste 20 Sudoeste 0 916.6 -0.6 82
2019-10-18 21:00:00 11.1 6 Sudoeste 22 Sudoeste 0 916.9 -0.7 78
2019-10-18 20:00:00 11.4 8 Sudoeste 21 Oeste 0 917.2 -0.7 77
2019-10-18 19:00:00 12.1 11 Sudoeste 20 Oeste 0 917.2 -1 75
2019-10-18 18:00:00 12.6 12 Sudoeste 33 Sudoeste 0 917.6 -1.1 71
2019-10-18 17:00:00 13.3 10 Oeste 28 Noroeste 0 917.9 -1.6 67
2019-10-18 16:00:00 13.7 13 Oeste 35 Sudoeste 0 918.2 -1.8 64
2019-10-18 15:00:00 13.5 17 Sudoeste 32 Sudoeste 0 918.7 -1.3 63
2019-10-18 14:00:00 12.8 14 Sudoeste 32 Sudoeste 0 919.5 -0.4 69
2019-10-18 13:00:00 12.5 19 Sudoeste 34 Sudoeste 0 920 0.5 71
2019-10-18 12:00:00 11 16 Sudoeste 31 Sudoeste 0 920 1.1 78
2019-10-18 11:00:00 9.9 19 Sudoeste 32 Sudoeste 0 919.9 1 80
2019-10-18 10:00:00 9.2 14 Sudoeste 31 Sudoeste 0 919.5 0.7 82
2019-10-18 09:00:00 9 13 Sudoeste 31 Sudoeste 0 918.9 0.2 82
2019-10-18 08:00:00 9.5 16 Sudoeste 30 Sudoeste 0 918.9 0.3 82
2019-10-18 07:00:00 9.9 17 Sudoeste 32 Sudoeste 0 918.8 0.2 82
2019-10-18 06:00:00 10.4 13 Oeste 32 Sudoeste 0 918.7 -0.1 85
2019-10-18 05:00:00 10.8 14 Sudoeste 28 Sudoeste 0 918.6 0 86
2019-10-18 04:00:00 11.5 10 Sudoeste 25 Sudoeste 0 918.6 -0.3 83
2019-10-18 03:00:00 12.3 10 Sudoeste 35 Oeste 0 918.8 -0.1 83
2019-10-18 02:00:00 12.7 13 Oeste 25 Oeste 0 918.6 -0.5 87
2019-10-18 01:00:00 13.1 14 Oeste 31 Oeste 0 918.9 0.3 88
2019-10-18 00:00:00 13.5 9 Oeste 22 Oeste 0 918.9 -0.1 89
2019-10-17 23:00:00 13.6 10 Oeste 21 Noroeste 6.4 919.1 0.1 90
2019-10-17 22:00:00 13.7 6 Sudoeste 18 Sudoeste 0.2 918.6 -0.3 90
2019-10-17 21:00:00 13.8 8 Sur 17 Sur 0.2 919 0.3 88
2019-10-17 20:00:00 14.5 9 Sur 21 Sudoeste 0 919 0.1 82
2019-10-17 19:00:00 15.2 12 Sudoeste 23 Sudoeste 0 918.9 -0.1 73
2019-10-17 18:00:00 16.2 14 Sudoeste 37 Oeste 0 918.7 -0.5 66
2019-10-17 17:00:00 17.2 16 Sudoeste 44 Oeste 0 918.9 -0.7 61
2019-10-17 16:00:00 16.7 21 Sudoeste 43 Oeste 0 919 -0.9 66
2019-10-17 15:00:00 16.8 20 Oeste 39 Oeste 0 919.2 -0.7 64
2019-10-17 14:00:00 16.5 11 Oeste 30 Sudoeste 0 919.6 -0.1 71
2019-10-17 13:00:00 14.7 12 Oeste 37 Oeste 0 919.9 0.8 77
2019-10-17 12:00:00 14.5 12 Oeste 36 Noroeste 0.2 919.9 1.5 80
2019-10-17 11:00:00 13.1 11 Oeste 27 Oeste 0 919.7 1.7 86
2019-10-17 10:00:00 12.6 12 Sudoeste 30 Oeste 0 919.1 1.5 92
2019-10-17 09:00:00 12 14 Sudoeste 27 Sudoeste 0 918.4 0.9 92
2019-10-17 08:00:00 11.8 15 Sudoeste 31 Sudoeste 0.2 918 0.4 91
2019-10-17 07:00:00 11.6 13 Sudoeste 31 Sudoeste 0.2 917.6 -0.3 91
2019-10-17 06:00:00 11.5 12 Sudoeste 25 Sudoeste 0.4 917.5 -1 91
2019-10-17 05:00:00 11.3 9 Sudoeste 29 Sur 0.6 917.6 -1.2 91
2019-10-17 04:00:00 11.3 15 Sudoeste 31 Sur 0.6 917.9 -1.3 90
2019-10-17 03:00:00 11.2 10 Sudoeste 22 Sudoeste 2.8 918.5 -1 89
2019-10-17 02:00:00 11 10 Sudoeste 27 Sur 1.6 918.8 -0.5 89
2019-10-17 01:00:00 11.1 14 Sudoeste 31 Sudoeste 2.4 919.2 -0.2 89
2019-10-17 00:00:00 11.1 14 Sudoeste 35 Sudoeste 1 919.5 -0.1 89
2019-10-16 23:00:00 11.1 15 Sur 36 Sudoeste 0.4 919.3 -0.3 89
2019-10-16 22:00:00 11.1 12 Sudoeste 35 Sudoeste 0.4 919.4 -0.1 88
2019-10-16 21:00:00 11.3 20 Sudoeste 41 Sudoeste 0.4 919.6 0.3 87
2019-10-16 20:00:00 11.5 7 Sudoeste 28 Sudoeste 0.4 919.6 0 84
2019-10-16 19:00:00 12.5 12 Sudoeste 24 Sudoeste 0 919.5 -0.3 72
2019-10-16 18:00:00 12.5 12 Sudoeste 25 Sudoeste 0 919.3 -1 74
2019-10-16 17:00:00 12.7 15 Sudoeste 32 Sudoeste 0 919.6 -1.3 72
2019-10-16 16:00:00 12.4 14 Sudoeste 41 Sur 0 919.8 -1.3 74
2019-10-16 15:00:00 11.9 12 Sudoeste 32 Sudoeste 0 920.3 -1 77
2019-10-16 14:00:00 11.2 17 Sudoeste 43 Sudoeste 0 920.9 -0.1 80
2019-10-16 13:00:00 10.8 19 Sudoeste 36 Sudoeste 0 921.1 0.2 83
2019-10-16 12:00:00 10.2 15 Sudoeste 41 Sudoeste 0 921.3 0.9 83
2019-10-16 11:00:00 10.1 17 Sudoeste 38 Sudoeste 0 921 0.2 83
2019-10-16 10:00:00 9.2 12 Sudoeste 35 Sudoeste 0 920.9 0 86
2019-10-16 09:00:00 8.8 19 Sudoeste 35 Sudoeste 0 920.4 -0.3 87
2019-10-16 08:00:00 8.7 16 Sudoeste 29 Sudoeste 0 920.8 -0.2 87
2019-10-16 07:00:00 8.6 14 Sudoeste 38 Sudoeste 0 920.9 -0.6 88
2019-10-16 06:00:00 8.7 18 Sudoeste 31 Sudoeste 0 920.7 -1.1 86
2019-10-16 05:00:00 8.6 14 Sudoeste 30 Sudoeste 0 921 -0.8 86
2019-10-16 04:00:00 8.7 12 Sudoeste 24 Sudoeste 0.2 921.5 -0.4 87
2019-10-16 03:00:00 8.7 9 Sudoeste 31 Sudoeste 0 921.8 -0.3 85
2019-10-16 02:00:00 8.8 16 Sudoeste 31 Sudoeste 0 921.8 -0.7 86
2019-10-16 01:00:00 9 19 Sudoeste 35 Sudoeste 0 921.9 -0.1 86
2019-10-16 00:00:00 9.1 15 Sudoeste 32 Sudoeste 0 922.1 -0.2 86
2019-10-15 23:00:00 9.2 18 Sudoeste 30 Sudoeste 0 922.5 0.2 87
2019-10-15 22:00:00 9.3 15 Sudoeste 32 Sudoeste 0 922 0 86
2019-10-15 21:00:00 9.4 11 Sudoeste 21 Sudoeste 0.4 922.3 0.2 86
2019-10-15 20:00:00 9.6 11 Sudoeste 20 Sudoeste 0.4 922.3 0.1 84
2019-10-15 19:00:00 10.1 8 Sudoeste 17 Sudoeste 0 922 -0.2 82
2019-10-15 18:00:00 9.9 11 Sudoeste 22 Sudoeste 0.2 922.1 -0.5 83
2019-10-15 17:00:00 10.1 11 Sudoeste 29 Sudoeste 0.2 922.2 -0.5 77
2019-10-15 16:00:00 9.8 8 Sur 21 Sudoeste 0 922.2 -0.4 81
2019-10-15 15:00:00 10 14 Sudoeste 29 Oeste 0 922.6 -0.2 79
2019-10-15 14:00:00 11.1 14 Sudoeste 39 Sudoeste 0 922.7 -0.2 71
2019-10-15 13:00:00 11.6 23 Sudoeste 47 Oeste 0 922.6 0.2 64
2019-10-15 12:00:00 10.2 22 Sudoeste 38 Sudoeste 0 922.8 1.1 67
2019-10-15 11:00:00 9.2 13 Sudoeste 33 Sudoeste 0 922.9 1.3 72
2019-10-15 10:00:00 7.4 19 Sudoeste 33 Sudoeste 0 922.4 0.9 83
2019-10-15 09:00:00 6.1 21 Sudoeste 33 Sudoeste 0 921.7 0.4 88
2019-10-15 08:00:00 5.8 17 Sudoeste 31 Sudoeste 0 921.6 0.6 89
2019-10-15 07:00:00 5.5 18 Sudoeste 30 Sudoeste 0 921.5 0.6 88
2019-10-15 06:00:00 5.7 18 Sudoeste 32 Sudoeste 0 921.3 0.4 87
2019-10-15 05:00:00 5.5 18 Sudoeste 32 Sudoeste 0 921 0.3 87
2019-10-15 04:00:00 5.6 16 Sudoeste 35 Sudoeste 0 920.9 0.7 85
2019-10-15 03:00:00 5.5 21 Sudoeste 38 Sudoeste 0 920.9 1.1 87
2019-10-15 02:00:00 5.7 21 Sudoeste 33 Sudoeste 0 920.7 1.7 84
2019-10-15 01:00:00 5.7 17 Sudoeste 35 Oeste 0 920.2 2 81
2019-10-15 00:00:00 6.3 18 Oeste 42 Sudoeste 0 919.8 1.9 76
2019-10-14 23:00:00 6 19 Sudoeste 39 Oeste 0 919 2 80
2019-10-14 22:00:00 6.3 18 Sudoeste 39 Sudoeste 0 918.2 2 77
2019-10-14 21:00:00 6.8 14 Sudoeste 27 Oeste 0 917.9 2.6 76
2019-10-14 20:00:00 7.1 12 Sudoeste 33 Sudoeste 0 917 2.2 76
2019-10-14 19:00:00 8.9 12 Oeste 35 Oeste 0 916.2 2 71
2019-10-14 18:00:00 9.7 18 Oeste 42 Oeste 0 915.3 2.3 70
2019-10-14 17:00:00 9.7 15 Oeste 39 Oeste 0.4 914.8 1.1 75
2019-10-14 16:00:00 9.2 11 Oeste 43 Oeste 1 914.2 0.5 80
2019-10-14 15:00:00 11.8 13 Oeste 35 Sudoeste 0 913 -0.7 75
2019-10-14 14:00:00 9.9 18 Sudoeste 40 Sudoeste 0.4 913.7 0.3 86
2019-10-14 13:00:00 9.4 21 Sur 44 Sudoeste 4.4 913.7 0.9 86
2019-10-14 12:00:00 9.6 19 Sudoeste 35 Sudoeste 0.6 913.7 2.4 85
2019-10-14 11:00:00 9.5 18 Sudoeste 36 Sudoeste 0 913.4 1.5 82
2019-10-14 10:00:00 8.5 14 Sudoeste 27 Sudoeste 7.6 912.8 1.5 87
2019-10-14 09:00:00 8.5 8 Oeste 21 Oeste 0.6 911.3 0.3 87
2019-10-14 08:00:00 9.1 11 Oeste 30 Oeste 0.4 911.9 0.5 84
2019-10-14 07:00:00 10.6 14 Oeste 46 Oeste 0.2 911.3 -0.5 86
2019-10-14 06:00:00 13.8 11 Sur 31 Sur 0 911 -1.7 72
2019-10-14 05:00:00 14.1 12 Sur 27 Sudoeste 0 911.4 -1.8 70
2019-10-14 04:00:00 14.5 9 Sur 33 Sur 0 911.8 -2.1 66
2019-10-14 03:00:00 14.7 14 Sur 33 Sur 0 912.7 -1.6 65
2019-10-14 02:00:00 15.2 12 Sur 37 Sur 0 913.2 -1.7 63
2019-10-14 01:00:00 15.4 15 Sur 44 Sudoeste 0 913.9 -1 61
2019-10-14 00:00:00 15.5 21 Sur 46 Sudoeste 0 914.3 -0.9 60